Gulf Breeze, FL

12:35 AM CDT on May 06, 2015 (GMT -0500)
Waterford Sound | | Change Station
CLOSE
Current Station
Personal Weather Station
Location: Gulf Breeze, FL
Elevation: 49 ft
Nearby Weather Stations
Active Advisory: Coastal Hazard Statement

Elev 49 ft 30.40 °N, 86.97 °W | Updated 7 minutes ago

Partly Cloudy
Partly Cloudy
66.4 °F
Feels Like 66.4 °F
N
0.0
Wind Variable Wind from SW

Today
High -- | Low -- °F
--% Chance of Precip.
Yesterday
High -- | Low -- °F
Precip. -- in
6:00 AM 7:29 PM
Waning Gibbous, 95% visible
Pressure 30.15 in
Visibility 10.0 miles
Clouds Scattered Clouds 6000 ft
Dew Point 63 °F
Humidity 89%
Rainfall 0.00 in
Snow Depth Not available.
UV 0 out of 12
Pollen 7.00 out of 12
Air Quality Not available.
Flu Activity Local Activity
METAR KPNS 060453Z AUTO 10003KT 10SM SCT060 21/18 A3014 RMK AO2 SLP208 T02060183

More Conditions Fewer Conditions

Pressure 30.15 in
Visibility 10.0 miles
Clouds Scattered Clouds 6000 ft
Dew Point 63 °F
Humidity 89%
Rainfall 0.00 in
Snow Depth Not available.
UV 0 out of 12
Pollen 7.00 out of 12
Air Quality Not available.
Flu Activity Local Activity
METAR KPNS 060453Z AUTO 10003KT 10SM SCT060 21/18 A3014 RMK AO2 SLP208 T02060183

More Conditions Fewer Conditions

10-Day Weather Forecast

Almanac

Astronomy

May. 06, 2015 Rise Set
Actual Time
Civil Twilight
Nautical Twilight
Astronomical Twilight
Moon
Length of Visible Light
Length of Day
Tomorrow will be .
, % of the Moon is Illuminated

Today's Extremes

State Highs State Lows

Community

WunderPhotos

Upload Photos

1,818,842 photos uploaded!

WunderBlogs® & News

Nearby

Air Quality

  Air Quality AQ Index Pollutant
Not available.

Snow Depth

Station Depth Elevation

Earthquake Activity

City Distance Mag. Time & Date
Minimum magnitude displayed is 2.5.

Coastal Water Temperatures

Place Temperature

Stations

Nearby Weather Stations

Station Location Temp. Windchill Dew Point Humidity Wind Precip. Elev Updated Type
                   
Coastal Hazard Statement
Statement as of 10:57 PM CDT on May 05, 2015

... High rip current risk remains in effect until 7 am CDT
Wednesday...

* timing... through Wednesday morning

* impacts... dangerous swimming conditions can be expected due to
the presence of stronger and more frequent rip currents.

Precautionary/preparedness actions...

There is a high risk of rip currents.

Rip currents are powerful channels of water flowing quickly away
from shore... which occur most often at low spots or breaks in The
Sandbar and in the vicinity of structures such as groins...
jetties and piers. Heed the advice of lifeguards and the beach
patrol. Pay attention to flags and posted signs.

If you become caught in a rip current... do not panic. Remain calm
and begin to swim parallel to shore. Once you are away from the
force of the rip current... begin to swim back to the beach. Do
not attempt to swim directly against a rip current. Even a strong
swimmer can become exhausted quickly.